Country
Station

 

Weather  for  Parana Aerodrome  -  Argentina    Argentina

  
21 °C (70 °F)
    
 
 

Current METAR for Parana Aerodrome is :

SAAP 180141Z 14007KT 5000 TSRA OVC040 FEW050CB 21/19 Q1006

 

This is a report for Parana Aerodrome - Argentina.
 
The report was made 144 hours and 35 minutes ago, at 01:41 UTC .
The wind was blowing at a speed of 3.6 meters per second (8.1 miles per hour) from southeast (140°).
 
The temperature was 21 °C (70 °F), with a dew-point at 19 °C (66 °F).
The atmospheric pressure was 1006 hPa (29.71 inHg).
The relative humidity was 88.4%.
 
The sky was overcast from a height of 1219 meter (4000 feet)
 
The overall visibility was 5.0 kilometers (3.1 miles).
 
Currently thunderstorm with moderate rain.

 
 
 
 

Country :   A   B   C   D   E   F   G   H   I   J   K   L   M   N   O   P   Q   R   S   T   U   V   W   Y   Z

 

Site Info  |  Disclaimer  |  Credits  |  Privacy
Contact us  |  Add to favorites
© 2013-2020 METARs - All rights reserved